Time;durP1;ratioP1;P1;durP2;ratioP2;P2;SDS_P1;SDS_P2;PMS_P1;PMS_P2;Temp;Humidity;BMP_temperature;BMP_pressure;BME280_temperature;BME280_humidity;BME280_pressure;Samples;Min_cycle;Max_cycle;Signal;HPM_P1;HPM_P2
2022/09/14 00:01:15;;;;;;;1.30;1.17;;;24.40;40.10;;;;;;5005754;28;20522;-71
2022/09/14 00:03:41;;;;;;;1.40;1.20;;;24.50;41.00;;;;;;5004927;28;20963;-70
2022/09/14 00:06:09;;;;;;;1.30;1.20;;;24.30;42.10;;;;;;5010441;28;20446;-71
2022/09/14 00:08:36;;;;;;;1.30;1.20;;;24.20;42.40;;;;;;5010345;28;20198;-71
2022/09/14 00:11:07;;;;;;;1.30;1.20;;;24.20;43.00;;;;;;5009465;28;20562;-71
2022/09/14 00:13:34;;;;;;;1.50;1.30;;;24.10;43.30;;;;;;5011449;28;20463;-71
2022/09/14 00:16:05;;;;;;;1.30;1.20;;;24.20;43.60;;;;;;5011186;28;20416;-71
2022/09/14 00:18:32;;;;;;;1.30;1.20;;;24.40;41.60;;;;;;5025747;28;20433;-71
2022/09/14 00:21:02;;;;;;;1.30;1.20;;;24.20;43.80;;;;;;5010815;28;20439;-71
2022/09/14 00:23:28;;;;;;;1.30;1.20;;;24.30;42.90;;;;;;5010852;28;20531;-71
2022/09/14 00:25:54;;;;;;;7.43;1.53;;;24.10;44.30;;;;;;5004671;28;20527;-72
2022/09/14 00:28:19;;;;;;;1.30;1.20;;;24.20;43.80;;;;;;5009956;28;20204;-70
2022/09/14 00:30:45;;;;;;;1.30;1.30;;;24.00;44.20;;;;;;5011268;28;20213;-72
2022/09/14 00:33:12;;;;;;;1.40;1.40;;;23.60;45.00;;;;;;5013347;28;20174;-72
2022/09/14 00:35:38;;;;;;;1.30;1.17;;;23.80;44.70;;;;;;5014242;28;20432;-70
2022/09/14 00:38:03;;;;;;;1.30;1.20;;;23.80;45.20;;;;;;5012602;28;20427;-71
2022/09/14 00:40:29;;;;;;;1.30;1.20;;;23.80;46.30;;;;;;5012595;28;20801;-71
2022/09/14 00:42:54;;;;;;;1.30;1.17;;;23.90;45.30;;;;;;5013141;28;20173;-71
2022/09/14 00:45:21;;;;;;;1.30;1.27;;;24.10;43.70;;;;;;5012143;28;20191;-71
2022/09/14 00:47:49;;;;;;;1.30;1.17;;;24.00;44.50;;;;;;5009996;28;20211;-71
2022/09/14 00:50:16;;;;;;;1.30;1.20;;;24.10;43.20;;;;;;5012872;28;20455;-71
2022/09/14 00:52:46;;;;;;;1.30;1.10;;;24.20;43.00;;;;;;5013566;28;20424;-71
2022/09/14 00:55:15;;;;;;;1.30;1.20;;;24.10;44.90;;;;;;5013851;28;20439;-71
2022/09/14 00:57:47;;;;;;;1.30;1.20;;;24.00;45.40;;;;;;5013817;28;20442;-71
2022/09/14 01:00:16;;;;;;;1.30;1.10;;;24.00;44.90;;;;;;5010364;28;20487;-71
2022/09/14 01:02:41;;;;;;;1.30;1.20;;;24.00;45.40;;;;;;5013605;28;20472;-71
2022/09/14 01:05:09;;;;;;;1.30;1.20;;;23.90;45.90;;;;;;5008059;28;20460;-71
2022/09/14 01:08:11;;;;;;;1.30;1.20;;;23.90;45.30;;;;;;5014660;28;20251;-71
2022/09/14 01:10:42;;;;;;;1.30;1.20;;;23.70;44.60;;;;;;5006893;28;20916;-71
2022/09/14 01:13:08;;;;;;;1.30;1.20;;;23.70;45.10;;;;;;5012537;28;20446;-70
2022/09/14 01:15:57;;;;;;;1.30;1.20;;;23.90;45.30;;;;;;5013649;28;21056;-70
2022/09/14 01:18:26;;;;;;;1.30;1.20;;;24.10;46.00;;;;;;5012503;28;20447;-70
2022/09/14 01:21:05;;;;;;;1.30;1.30;;;24.00;49.40;;;;;;5014019;28;20440;-70
2022/09/14 01:23:54;;;;;;;1.30;1.10;;;23.90;51.00;;;;;;5010016;28;20440;-70
2022/09/14 01:26:36;;;;;;;1.30;1.30;;;23.50;49.20;;;;;;5012223;28;20439;-70
2022/09/14 01:29:08;;;;;;;1.30;1.20;;;23.00;53.90;;;;;;5011725;28;20444;-70
2022/09/14 01:31:48;;;;;;;1.30;1.20;;;22.70;56.00;;;;;;5011398;28;20431;-70
2022/09/14 01:34:26;;;;;;;1.30;1.20;;;22.00;69.40;;;;;;5011682;28;20423;-72
2022/09/14 01:36:58;;;;;;;1.30;1.10;;;22.20;69.80;;;;;;5013535;28;20697;-70
2022/09/14 01:39:25;;;;;;;1.30;1.20;;;22.00;70.70;;;;;;5005875;28;20458;-71
2022/09/14 01:41:53;;;;;;;1.30;1.30;;;21.80;72.10;;;;;;5012186;28;20947;-70
2022/09/14 01:44:29;;;;;;;1.30;1.20;;;22.20;70.20;;;;;;5013276;28;20458;-70
2022/09/14 01:47:00;;;;;;;1.30;1.20;;;22.40;67.80;;;;;;5011877;28;20833;-70
2022/09/14 01:49:41;;;;;;;1.30;1.20;;;22.60;66.60;;;;;;5044339;22;20456;-69
2022/09/14 01:52:15;;;;;;;1.30;1.10;;;22.20;67.00;;;;;;4985635;28;20461;-69
2022/09/14 01:55:04;;;;;;;1.30;1.20;;;21.80;71.10;;;;;;4992676;28;20526;-69
2022/09/14 01:57:35;;;;;;;1.30;1.20;;;21.00;77.60;;;;;;4980733;28;20439;-69
2022/09/14 02:00:06;;;;;;;1.30;1.20;;;20.30;83.20;;;;;;4992330;28;20840;-69
2022/09/14 02:02:40;;;;;;;1.40;1.30;;;20.40;85.70;;;;;;4980749;28;20427;-69
2022/09/14 02:05:29;;;;;;;1.30;1.20;;;20.60;81.20;;;;;;4983212;28;20512;-70
2022/09/14 02:07:55;;;;;;;1.30;1.10;;;21.00;80.10;;;;;;4985271;28;20460;-69
2022/09/14 02:10:23;;;;;;;1.30;1.10;;;21.10;74.80;;;;;;4985068;28;20462;-69
2022/09/14 02:12:49;;;;;;;1.40;1.37;;;21.40;74.50;;;;;;4993148;28;20433;-71
2022/09/14 02:15:15;;;;;;;1.30;1.20;;;22.00;70.40;;;;;;4992158;28;20434;-69
2022/09/14 02:17:42;;;;;;;1.30;1.20;;;22.20;68.00;;;;;;4984708;28;20504;-69
2022/09/14 02:20:14;;;;;;;1.60;1.23;;;22.50;67.80;;;;;;4983798;28;20813;-69
2022/09/14 02:22:40;;;;;;;1.30;1.20;;;22.50;64.80;;;;;;4993842;28;21115;-69
2022/09/14 02:25:06;;;;;;;1.30;1.20;;;22.40;65.30;;;;;;4988918;28;20433;-69
2022/09/14 02:27:32;;;;;;;1.30;1.20;;;22.40;65.40;;;;;;4988516;28;20202;-69
2022/09/14 02:29:57;;;;;;;1.30;1.20;;;22.50;64.60;;;;;;4981608;28;20466;-69
2022/09/14 02:32:33;;;;;;;1.30;1.20;;;22.50;63.60;;;;;;4994449;28;20176;-69
2022/09/14 02:35:25;;;;;;;1.30;1.23;;;22.50;65.10;;;;;;4988418;28;20174;-71
2022/09/14 02:37:53;;;;;;;1.30;1.10;;;22.60;63.50;;;;;;4987398;28;20457;-74
2022/09/14 02:40:26;;;;;;;1.30;1.10;;;22.60;64.00;;;;;;4990449;28;20825;-71
2022/09/14 02:43:20;;;;;;;1.30;1.20;;;22.70;63.60;;;;;;4992756;28;20430;-72
2022/09/14 02:46:14;;;;;;;1.30;1.20;;;22.50;64.20;;;;;;4986573;28;20438;-70
2022/09/14 02:49:08;;;;;;;1.30;1.10;;;22.50;63.90;;;;;;4985957;28;20466;-69
2022/09/14 02:51:49;;;;;;;1.30;1.20;;;22.60;63.40;;;;;;4990174;28;20880;-69
2022/09/14 02:54:23;;;;;;;1.30;1.17;;;22.60;63.70;;;;;;4989991;28;20458;-72
2022/09/14 02:56:49;;;;;;;1.30;1.13;;;22.60;63.40;;;;;;4985694;28;20440;-70
2022/09/14 02:59:15;;;;;;;1.30;1.20;;;22.50;64.10;;;;;;4989447;28;20436;-69
2022/09/14 03:01:41;;;;;;;1.30;1.30;;;22.40;64.50;;;;;;4986988;28;20993;-69
2022/09/14 03:04:06;;;;;;;1.30;1.20;;;22.40;63.40;;;;;;4992893;28;20431;-69
2022/09/14 03:06:35;;;;;;;1.30;1.30;;;22.40;65.30;;;;;;4980778;28;20179;-69
2022/09/14 03:09:01;;;;;;;1.30;1.20;;;22.50;64.20;;;;;;4973185;28;20706;-70
2022/09/14 03:11:26;;;;;;;1.30;1.20;;;22.40;64.90;;;;;;4981323;28;20462;-69
2022/09/14 03:13:52;;;;;;;1.30;1.20;;;22.40;65.70;;;;;;4988858;28;20192;-69
2022/09/14 03:16:18;;;;;;;1.30;1.20;;;22.40;66.00;;;;;;4981524;28;20696;-70
2022/09/14 03:18:44;;;;;;;1.27;1.10;;;22.70;64.20;;;;;;4983390;28;20186;-73
2022/09/14 03:21:12;;;;;;;1.30;1.10;;;22.80;62.10;;;;;;4989311;28;20536;-69
2022/09/14 03:23:42;;;;;;;1.30;1.17;;;22.90;63.40;;;;;;4980138;28;20180;-71
2022/09/14 03:26:19;;;;;;;1.30;1.20;;;22.70;64.00;;;;;;4983685;28;20434;-69
2022/09/14 03:28:52;;;;;;;1.30;1.20;;;22.70;63.50;;;;;;4990488;28;20533;-69
2022/09/14 03:31:19;;;;;;;1.30;1.23;;;22.80;63.30;;;;;;4988970;28;20817;-70
2022/09/14 03:33:45;;;;;;;1.30;1.20;;;22.70;63.80;;;;;;4982655;28;20927;-69
2022/09/14 03:36:16;;;;;;;1.30;1.30;;;22.70;63.80;;;;;;4992759;28;20440;-69
2022/09/14 03:38:43;;;;;;;1.30;1.10;;;22.60;62.20;;;;;;4983129;28;20174;-70
2022/09/14 03:41:09;;;;;;;1.30;1.13;;;22.70;64.10;;;;;;4979243;28;20455;-70
2022/09/14 03:43:35;;;;;;;1.30;1.10;;;22.70;64.30;;;;;;4987032;28;20430;-69
2022/09/14 03:46:05;;;;;;;1.60;1.53;;;22.60;64.30;;;;;;4983344;28;20442;-69
2022/09/14 03:48:31;;;;;;;1.30;1.20;;;22.70;64.10;;;;;;4996129;28;20201;-69
2022/09/14 03:51:00;;;;;;;1.30;1.20;;;22.60;64.70;;;;;;4988106;28;20849;-70
2022/09/14 03:53:26;;;;;;;1.30;1.20;;;22.70;64.00;;;;;;4982411;28;20222;-69
2022/09/14 03:55:52;;;;;;;1.30;1.10;;;22.70;64.20;;;;;;4981237;28;20419;-70
2022/09/14 03:58:18;;;;;;;1.30;1.10;;;22.70;64.20;;;;;;4990458;28;20447;-69
2022/09/14 04:00:44;;;;;;;1.30;1.20;;;22.70;64.40;;;;;;4984876;28;20459;-70
2022/09/14 04:03:09;;;;;;;1.30;1.10;;;22.70;64.10;;;;;;4988136;28;20204;-69
2022/09/14 04:05:35;;;;;;;1.30;1.10;;;22.70;64.20;;;;;;4990016;28;20675;-70
2022/09/14 04:08:01;;;;;;;1.30;1.20;;;22.70;63.70;;;;;;4983591;28;20243;-71
2022/09/14 04:10:26;;;;;;;1.30;1.20;;;22.70;63.40;;;;;;4983630;28;20244;-69
2022/09/14 04:12:52;;;;;;;1.30;1.10;;;22.70;63.40;;;;;;4988265;28;20186;-69
2022/09/14 04:15:18;;;;;;;1.30;1.20;;;22.70;62.50;;;;;;4991095;28;20194;-69
2022/09/14 04:17:43;;;;;;;1.30;1.07;;;22.70;62.90;;;;;;4980615;28;20181;-69
2022/09/14 04:20:09;;;;;;;1.30;1.30;;;22.60;63.40;;;;;;4992932;28;20461;-72
2022/09/14 04:22:35;;;;;;;1.30;1.13;;;22.60;63.10;;;;;;4994239;28;20206;-70
2022/09/14 04:25:00;;;;;;;1.30;1.10;;;22.60;63.50;;;;;;4990824;28;20290;-69
2022/09/14 04:27:26;;;;;;;1.30;1.20;;;22.80;62.50;;;;;;4984331;28;20573;-69
2022/09/14 04:29:51;;;;;;;1.30;1.30;;;22.80;62.50;;;;;;5000380;28;20204;-71
2022/09/14 04:32:17;;;;;;;1.30;1.30;;;22.80;62.70;;;;;;4992380;28;20172;-72
2022/09/14 04:34:42;;;;;;;1.30;1.10;;;22.70;62.40;;;;;;4983141;28;20710;-69
2022/09/14 04:37:08;;;;;;;1.30;1.20;;;22.70;63.20;;;;;;4984027;28;20665;-69
2022/09/14 04:39:34;;;;;;;1.30;1.10;;;22.60;64.20;;;;;;4982644;28;20187;-70
2022/09/14 04:41:59;;;;;;;1.30;1.13;;;22.60;63.90;;;;;;4992256;28;20183;-69
2022/09/14 04:44:25;;;;;;;1.30;1.20;;;22.70;64.00;;;;;;4980116;28;20196;-70
2022/09/14 04:46:51;;;;;;;1.30;1.10;;;22.60;63.90;;;;;;4985978;28;20194;-72
2022/09/14 04:49:17;;;;;;;1.30;1.20;;;22.70;64.00;;;;;;4991966;28;20526;-70
2022/09/14 04:51:44;;;;;;;1.30;1.20;;;22.60;63.70;;;;;;4980407;28;20206;-69
2022/09/14 04:54:14;;;;;;;1.30;1.13;;;22.70;64.20;;;;;;4990170;28;20439;-69
2022/09/14 04:56:40;;;;;;;1.30;1.13;;;22.70;63.30;;;;;;4990745;28;20419;-69
2022/09/14 04:59:06;;;;;;;1.30;1.20;;;22.80;64.30;;;;;;4992891;28;20430;-69
2022/09/14 05:01:39;;;;;;;1.30;1.10;;;22.30;66.20;;;;;;4987308;28;21032;-70
2022/09/14 05:04:06;;;;;;;1.30;1.10;;;21.80;73.10;;;;;;4982476;28;20500;-70
2022/09/14 05:06:34;;;;;;;1.30;1.20;;;21.40;79.80;;;;;;4985322;28;20450;-71
2022/09/14 05:09:01;;;;;;;1.30;1.20;;;21.60;78.50;;;;;;4983039;28;20458;-70
2022/09/14 05:11:29;;;;;;;1.30;1.20;;;21.80;76.10;;;;;;4983252;28;20528;-71
2022/09/14 05:13:57;;;;;;;1.23;1.13;;;22.20;72.90;;;;;;4986996;28;20429;-69
2022/09/14 05:16:24;;;;;;;1.30;1.20;;;22.50;69.40;;;;;;4984165;28;20437;-71
2022/09/14 05:18:52;;;;;;;1.27;1.10;;;22.60;68.00;;;;;;4987923;28;21034;-69
2022/09/14 05:21:20;;;;;;;1.30;1.10;;;22.60;67.50;;;;;;4991355;28;21047;-68
2022/09/14 05:23:46;;;;;;;1.30;1.13;;;22.60;67.70;;;;;;4993581;28;20516;-69
2022/09/14 05:26:12;;;;;;;1.30;1.10;;;22.70;67.50;;;;;;4992975;28;20441;-69
2022/09/14 05:28:38;;;;;;;1.30;1.20;;;22.70;67.80;;;;;;4994284;28;20497;-69
2022/09/14 05:31:09;;;;;;;1.23;1.10;;;22.60;67.90;;;;;;4986080;28;20520;-69
2022/09/14 05:33:35;;;;;;;1.30;1.20;;;22.70;68.10;;;;;;4991619;28;20176;-70
2022/09/14 05:36:06;;;;;;;1.20;1.17;;;22.70;68.10;;;;;;4985676;28;20437;-71
2022/09/14 05:38:33;;;;;;;1.30;1.20;;;22.90;66.00;;;;;;4991323;28;20805;-69
2022/09/14 05:40:59;;;;;;;1.30;1.27;;;23.00;65.20;;;;;;4988750;28;20793;-71
2022/09/14 05:43:26;;;;;;;1.30;1.13;;;23.00;65.40;;;;;;4989116;28;20481;-70
2022/09/14 05:45:52;;;;;;;1.30;1.20;;;22.90;66.60;;;;;;4988359;28;20292;-69
2022/09/14 05:48:17;;;;;;;1.30;1.30;;;22.80;66.80;;;;;;4990009;28;20537;-71
2022/09/14 05:50:43;;;;;;;1.23;1.10;;;23.00;65.90;;;;;;4987633;28;20230;-69
2022/09/14 05:53:09;;;;;;;1.23;1.20;;;23.00;66.40;;;;;;4985332;28;20523;-70
2022/09/14 05:55:34;;;;;;;1.30;1.17;;;23.20;65.10;;;;;;4991785;28;20209;-69
2022/09/14 05:58:00;;;;;;;1.30;1.10;;;23.20;65.10;;;;;;4991823;28;20565;-70
2022/09/14 06:00:26;;;;;;;1.20;1.13;;;23.20;65.40;;;;;;4991157;28;20267;-71
2022/09/14 06:02:53;;;;;;;1.30;1.10;;;23.10;65.90;;;;;;4979007;28;20187;-70
2022/09/14 06:05:19;;;;;;;1.30;1.20;;;23.20;66.20;;;;;;4983153;28;20432;-69
2022/09/14 06:07:50;;;;;;;1.20;1.13;;;23.30;65.30;;;;;;4982676;28;20467;-69
2022/09/14 06:10:15;;;;;;;1.30;1.20;;;23.20;66.40;;;;;;4992792;28;20461;-69
2022/09/14 06:12:41;;;;;;;1.30;1.30;;;23.20;66.50;;;;;;4980321;28;20531;-69
2022/09/14 06:15:07;;;;;;;1.27;1.23;;;23.30;66.70;;;;;;4982875;28;20242;-69
2022/09/14 06:17:33;;;;;;;1.30;1.30;;;23.30;67.20;;;;;;4978424;28;20207;-69
2022/09/14 06:19:58;;;;;;;1.20;1.10;;;23.40;67.10;;;;;;4987886;28;20455;-69
2022/09/14 06:22:24;;;;;;;1.30;1.20;;;23.50;66.90;;;;;;4986458;28;20691;-71
2022/09/14 06:24:49;;;;;;;1.20;1.20;;;23.50;67.10;;;;;;4990208;28;20188;-69
2022/09/14 06:27:15;;;;;;;1.30;1.20;;;23.60;67.40;;;;;;4989516;28;20208;-70
2022/09/14 06:29:41;;;;;;;1.20;1.20;;;23.70;65.90;;;;;;4987625;28;21208;-69
2022/09/14 06:32:06;;;;;;;1.20;1.10;;;23.70;65.70;;;;;;4979954;28;20177;-70
2022/09/14 06:34:32;;;;;;;1.57;1.47;;;23.70;66.10;;;;;;4984745;28;20240;-69
2022/09/14 06:36:58;;;;;;;1.40;1.30;;;23.80;66.30;;;;;;4989470;28;20548;-69
2022/09/14 06:39:23;;;;;;;1.30;1.23;;;23.80;66.00;;;;;;4993036;28;20180;-68
2022/09/14 06:41:50;;;;;;;1.23;1.10;;;23.80;67.60;;;;;;4989181;28;20517;-69
2022/09/14 06:44:16;;;;;;;1.30;1.10;;;23.90;63.90;;;;;;4995673;28;20180;-69
2022/09/14 06:46:43;;;;;;;1.30;1.17;;;23.80;66.90;;;;;;4993043;28;20483;-69
2022/09/14 06:49:11;;;;;;;1.27;1.20;;;23.80;67.90;;;;;;4992971;28;20514;-71
2022/09/14 06:51:42;;;;;;;1.30;1.20;;;23.90;66.20;;;;;;4992293;28;20480;-72
2022/09/14 06:54:10;;;;;;;1.30;1.10;;;23.80;68.20;;;;;;4988679;28;20443;-69
2022/09/14 06:56:38;;;;;;;1.30;1.20;;;24.00;67.60;;;;;;4987524;28;20432;-71
2022/09/14 06:59:05;;;;;;;1.20;1.10;;;23.80;68.00;;;;;;4982130;28;20444;-70
2022/09/14 07:01:31;;;;;;;1.30;1.20;;;24.00;65.10;;;;;;4992355;28;20444;-69
2022/09/14 07:03:59;;;;;;;1.30;1.20;;;24.10;67.50;;;;;;4990955;28;20444;-70
2022/09/14 07:06:27;;;;;;;1.23;1.20;;;24.20;65.60;;;;;;4985634;28;20216;-69
2022/09/14 07:08:54;;;;;;;1.30;1.30;;;24.20;65.00;;;;;;4986708;28;20551;-69
2022/09/14 07:11:24;;;;;;;1.30;1.20;;;24.30;65.90;;;;;;4992268;28;20491;-69
2022/09/14 07:13:51;;;;;;;1.30;1.10;;;24.30;64.40;;;;;;4990686;28;20521;-69
2022/09/14 07:16:17;;;;;;;1.23;1.20;;;24.40;65.30;;;;;;4986324;28;20438;-69
2022/09/14 07:18:43;;;;;;;1.30;1.10;;;24.50;62.90;;;;;;4996123;28;20951;-70
2022/09/14 07:21:20;;;;;;;1.30;1.20;;;24.60;66.10;;;;;;4988396;28;20574;-69
2022/09/14 07:23:47;;;;;;;1.30;1.20;;;24.50;62.80;;;;;;4979809;28;20437;-69
2022/09/14 07:26:18;;;;;;;1.30;1.30;;;24.60;67.20;;;;;;4986796;28;20518;-69
2022/09/14 07:28:47;;;;;;;1.30;1.20;;;24.70;65.90;;;;;;4990855;28;20468;-72
2022/09/14 07:31:16;;;;;;;1.30;1.10;;;24.60;63.30;;;;;;4992051;28;20534;-69
2022/09/14 07:33:42;;;;;;;1.27;1.13;;;24.60;63.30;;;;;;4999259;28;20929;-72
2022/09/14 07:36:09;;;;;;;1.30;1.10;;;24.90;61.20;;;;;;4992283;28;20422;-69
2022/09/14 07:38:35;;;;;;;1.30;1.07;;;24.60;61.10;;;;;;4988737;28;20192;-69
2022/09/14 07:41:00;;;;;;;1.30;1.20;;;24.40;63.60;;;;;;4977620;28;20547;-70
2022/09/14 07:43:27;;;;;;;1.23;1.10;;;24.70;62.20;;;;;;4984524;28;20198;-71
2022/09/14 07:45:53;;;;;;;1.30;1.10;;;24.80;59.80;;;;;;4996266;28;20474;-74
2022/09/14 07:48:19;;;;;;;1.30;1.10;;;24.90;60.70;;;;;;4989343;28;20515;-74
2022/09/14 07:50:45;;;;;;;1.30;1.10;;;24.90;59.90;;;;;;4988856;28;20303;-69
2022/09/14 07:53:11;;;;;;;1.30;1.20;;;24.50;60.20;;;;;;4981963;28;20860;-69
2022/09/14 07:55:40;;;;;;;1.30;1.20;;;24.50;62.00;;;;;;4983251;28;20708;-72
2022/09/14 07:58:06;;;;;;;1.30;1.20;;;24.90;59.90;;;;;;4980976;28;20244;-69
2022/09/14 08:00:32;;;;;;;1.30;1.10;;;25.00;58.60;;;;;;4990677;28;20888;-68
2022/09/14 08:02:58;;;;;;;1.30;1.20;;;25.10;58.60;;;;;;4982163;28;20464;-70
2022/09/14 08:05:25;;;;;;;1.30;1.17;;;25.20;57.00;;;;;;4983230;28;20483;-69
2022/09/14 08:07:56;;;;;;;1.30;1.20;;;25.20;54.80;;;;;;4983961;28;20978;-68
2022/09/14 08:10:23;;;;;;;1.30;1.00;;;25.10;54.60;;;;;;4985634;28;20815;-72
2022/09/14 08:12:55;;;;;;;1.30;1.10;;;24.80;55.80;;;;;;4986004;28;20526;-69
2022/09/14 08:15:22;;;;;;;1.30;1.20;;;24.30;60.80;;;;;;4985037;28;20447;-69
2022/09/14 08:17:48;;;;;;;1.30;1.10;;;24.50;59.40;;;;;;4987995;28;20440;-69
2022/09/14 08:20:15;;;;;;;1.30;1.20;;;24.90;61.30;;;;;;4991098;28;20522;-73
2022/09/14 08:22:42;;;;;;;1.30;1.10;;;25.20;55.70;;;;;;4991504;28;20818;-70
2022/09/14 08:25:08;;;;;;;1.30;1.10;;;25.40;54.60;;;;;;4997379;28;20432;-71
2022/09/14 08:27:34;;;;;;;1.30;1.13;;;25.30;54.90;;;;;;4986268;28;20527;-70
2022/09/14 08:29:59;;;;;;;1.30;1.20;;;25.70;53.80;;;;;;4982749;28;20456;-71
2022/09/14 08:32:25;;;;;;;1.30;1.20;;;25.60;53.30;;;;;;4991199;28;20186;-69
2022/09/14 08:34:51;;;;;;;1.30;1.20;;;25.40;53.70;;;;;;4999567;28;20620;-71
2022/09/14 08:37:17;;;;;;;1.30;1.10;;;25.30;54.30;;;;;;4991352;28;20635;-71
2022/09/14 08:39:42;;;;;;;1.30;1.20;;;25.20;55.00;;;;;;4991371;28;20476;-71
2022/09/14 08:42:14;;;;;;;1.30;1.10;;;25.60;54.00;;;;;;4988396;28;20237;-74
2022/09/14 08:44:49;;;;;;;1.30;1.10;;;26.10;52.00;;;;;;4994737;28;20170;-72
2022/09/14 08:47:29;;;;;;;1.30;1.20;;;25.70;51.80;;;;;;4991509;28;20479;-71
2022/09/14 08:50:17;;;;;;;1.30;1.20;;;25.40;52.80;;;;;;5001260;28;20963;-71
2022/09/14 08:52:46;;;;;;;1.30;1.20;;;24.90;57.60;;;;;;5004665;28;20483;-71
2022/09/14 08:55:32;;;;;;;1.30;1.20;;;24.60;59.00;;;;;;4990848;28;20523;-71
2022/09/14 08:57:59;;;;;;;1.30;1.20;;;25.10;56.10;;;;;;5000290;28;20491;-68
2022/09/14 09:00:38;;;;;;;1.30;1.10;;;25.50;55.20;;;;;;4989497;28;20463;-69
2022/09/14 09:03:13;;;;;;;1.30;1.20;;;25.20;54.50;;;;;;4993518;28;20519;-68
2022/09/14 09:05:44;;;;;;;1.30;1.20;;;25.10;55.90;;;;;;4984638;28;20435;-69
2022/09/14 09:08:15;;;;;;;1.30;1.10;;;25.30;56.30;;;;;;4983180;28;20461;-69
2022/09/14 09:10:41;;;;;;;1.30;1.20;;;25.50;54.50;;;;;;4983665;28;20457;-69
2022/09/14 09:13:12;;;;;;;1.30;1.10;;;25.30;54.10;;;;;;4981251;28;20429;-69
2022/09/14 09:15:43;;;;;;;1.30;1.10;;;25.10;54.90;;;;;;4990996;28;20182;-68
2022/09/14 09:18:24;;;;;;;1.30;1.20;;;25.00;54.70;;;;;;4988048;28;20472;-69
2022/09/14 09:20:55;;;;;;;1.30;1.20;;;25.20;55.90;;;;;;4990622;28;20448;-68
2022/09/14 09:23:23;;;;;;;1.30;1.20;;;25.60;54.90;;;;;;4993414;28;20401;-69
2022/09/14 09:26:25;;;;;;;1.30;1.10;;;26.00;51.50;;;;;;4993666;28;20500;-68
2022/09/14 09:28:55;;;;;;;1.30;1.10;;;25.10;54.60;;;;;;4990622;28;20472;-68
2022/09/14 09:31:32;;;;;;;1.30;1.20;;;25.10;55.60;;;;;;4987871;28;20516;-68
2022/09/14 09:33:59;;;;;;;1.27;1.20;;;25.10;53.40;;;;;;4988355;28;20429;-68
2022/09/14 09:36:35;;;;;;;1.30;1.20;;;26.20;50.60;;;;;;4988514;28;20432;-68
2022/09/14 09:39:01;;;;;;;1.30;1.10;;;26.20;48.90;;;;;;4987529;28;20523;-69
2022/09/14 09:41:30;;;;;;;1.30;1.20;;;26.60;48.00;;;;;;4978586;28;20460;-69
2022/09/14 09:44:01;;;;;;;1.30;1.10;;;26.90;47.10;;;;;;4989450;28;20462;-69
2022/09/14 09:46:34;;;;;;;1.30;1.20;;;26.10;48.30;;;;;;4979378;28;20444;-69
2022/09/14 09:49:20;;;;;;;1.30;1.20;;;26.50;47.90;;;;;;4988810;28;20519;-68
2022/09/14 09:51:47;;;;;;;1.30;1.10;;;26.80;47.00;;;;;;4932389;28;1136005;-69
2022/09/14 09:54:13;;;;;;;1.30;1.10;;;26.70;46.60;;;;;;5011010;28;20184;-68
2022/09/14 09:56:49;;;;;;;1.30;1.10;;;27.00;46.00;;;;;;5011189;28;20420;-68
2022/09/14 09:59:36;;;;;;;1.40;1.30;;;26.10;48.90;;;;;;4971983;28;20190;-68
2022/09/14 10:02:25;;;;;;;1.30;1.20;;;26.10;48.70;;;;;;4971538;28;20556;-68
2022/09/14 10:05:17;;;;;;;1.30;1.20;;;26.10;50.00;;;;;;4972679;28;20429;-68
2022/09/14 10:07:52;;;;;;;1.30;1.10;;;26.30;50.10;;;;;;4980295;28;20807;-68
2022/09/14 10:10:22;;;;;;;1.30;1.10;;;26.80;47.60;;;;;;4993684;28;20441;-68
2022/09/14 10:12:50;;;;;;;1.30;1.10;;;26.70;46.00;;;;;;4993034;28;20401;-68
2022/09/14 10:15:19;;;;;;;1.30;1.20;;;26.70;46.00;;;;;;4993494;28;20413;-68
2022/09/14 10:18:10;;;;;;;1.30;1.10;;;27.00;46.20;;;;;;4993422;28;20416;-68
2022/09/14 10:21:04;;;;;;;1.30;1.20;;;27.60;42.50;;;;;;4973867;28;20429;-69
2022/09/14 10:23:34;;;;;;;1.30;1.17;;;28.00;41.50;;;;;;4978704;28;20406;-68
2022/09/14 10:26:12;;;;;;;1.30;1.03;;;28.50;40.40;;;;;;5012999;28;20884;-70
2022/09/14 10:28:48;;;;;;;1.30;1.10;;;28.90;38.00;;;;;;4994977;28;20455;-69
2022/09/14 10:31:14;;;;;;;1.30;1.10;;;29.20;37.40;;;;;;4992974;28;20428;-68
2022/09/14 10:33:40;;;;;;;1.30;1.20;;;29.30;36.10;;;;;;4991912;28;20809;-69
2022/09/14 10:36:11;;;;;;;1.30;1.10;;;29.20;36.60;;;;;;4993480;28;20250;-68
2022/09/14 10:39:06;;;;;;;1.30;1.10;;;28.90;36.90;;;;;;4993286;28;20653;-70
2022/09/14 10:41:44;;;;;;;1.30;1.20;;;28.50;38.10;;;;;;4983166;28;20449;-68
2022/09/14 10:44:20;;;;;;;1.30;1.10;;;28.10;38.60;;;;;;4985304;28;20437;-68
2022/09/14 10:46:52;;;;;;;1.30;1.10;;;28.30;38.00;;;;;;4992806;28;20452;-68
2022/09/14 10:49:38;;;;;;;1.30;1.20;;;27.90;39.10;;;;;;5008664;28;20463;-68
2022/09/14 10:52:39;;;;;;;1.40;1.20;;;27.90;39.10;;;;;;5010045;28;20419;-68
2022/09/14 10:55:23;;;;;;;1.93;1.60;;;27.50;39.90;;;;;;4999381;28;20439;-70
2022/09/14 10:58:23;;;;;;;1.30;1.10;;;27.20;40.20;;;;;;4995694;28;20828;-68
2022/09/14 11:01:41;;;;;;;1.30;1.07;;;27.40;39.70;;;;;;4987304;28;20425;-67
2022/09/14 11:04:28;;;;;;;1.30;1.20;;;27.80;39.90;;;;;;5008211;28;20412;-68
2022/09/14 11:07:12;;;;;;;1.30;1.10;;;27.50;41.00;;;;;;4990908;28;20998;-69
2022/09/14 11:09:52;;;;;;;1.30;1.10;;;27.60;40.00;;;;;;4981883;28;20476;-68
2022/09/14 11:12:32;;;;;;;1.30;1.20;;;27.80;39.00;;;;;;4991177;28;20441;-68
2022/09/14 11:15:17;;;;;;;1.30;1.20;;;28.00;37.30;;;;;;5009507;28;20419;-68
2022/09/14 11:18:18;;;;;;;1.30;1.10;;;28.40;36.80;;;;;;5007412;28;20429;-70
2022/09/14 11:21:27;;;;;;;1.30;1.10;;;28.70;33.80;;;;;;4993255;28;20440;-68
2022/09/14 11:24:00;;;;;;;1.27;1.00;;;28.80;34.60;;;;;;4992628;28;20434;-68
2022/09/14 11:26:34;;;;;;;1.30;1.10;;;28.10;34.40;;;;;;4973244;28;20488;-68
2022/09/14 11:29:34;;;;;;;1.30;1.20;;;28.40;33.00;;;;;;4985162;28;20496;-68
2022/09/14 11:32:10;;;;;;;1.30;1.10;;;27.60;35.00;;;;;;4991676;28;20445;-68
2022/09/14 11:34:42;;;;;;;1.30;1.10;;;27.60;34.50;;;;;;4991991;28;20435;-68
2022/09/14 11:37:15;;;;;;;1.30;1.10;;;27.50;36.90;;;;;;4992449;28;20436;-68
2022/09/14 11:39:46;;;;;;;1.27;1.10;;;28.20;35.20;;;;;;4999537;28;20431;-70
2022/09/14 11:42:19;;;;;;;1.30;1.10;;;28.50;34.50;;;;;;4993936;28;20472;-70
2022/09/14 11:44:46;;;;;;;1.30;1.10;;;28.60;33.50;;;;;;4990382;28;20464;-69
2022/09/14 11:47:17;;;;;;;1.30;1.10;;;28.00;33.30;;;;;;4991295;28;20432;-68
2022/09/14 11:50:03;;;;;;;1.30;1.10;;;27.50;33.60;;;;;;4991913;28;20432;-69
2022/09/14 11:52:31;;;;;;;1.30;1.10;;;27.50;35.30;;;;;;4991364;28;20404;-70
2022/09/14 11:54:59;;;;;;;1.30;1.10;;;27.80;34.90;;;;;;4998444;28;20447;-70
2022/09/14 11:57:32;;;;;;;1.30;1.00;;;27.80;35.90;;;;;;4989267;28;20483;-68
2022/09/14 11:59:58;;;;;;;1.30;1.10;;;28.10;37.40;;;;;;4984036;28;20456;-68
2022/09/14 12:02:29;;;;;;;1.30;1.10;;;28.20;37.90;;;;;;5011474;28;20408;-70
2022/09/14 12:05:06;;;;;;;1.30;1.10;;;28.00;36.00;;;;;;4988792;28;20185;-68
2022/09/14 12:07:49;;;;;;;1.30;1.20;;;27.60;36.90;;;;;;4986604;28;20460;-69
2022/09/14 12:10:17;;;;;;;1.30;1.10;;;27.70;37.20;;;;;;4990130;28;20503;-68
2022/09/14 12:12:44;;;;;;;1.30;1.10;;;27.60;37.60;;;;;;4984571;28;20816;-68
2022/09/14 12:15:27;;;;;;;1.30;1.00;;;27.60;37.20;;;;;;4989741;28;20471;-68
2022/09/14 12:18:13;;;;;;;1.30;1.10;;;27.60;36.30;;;;;;4995406;28;20428;-68
2022/09/14 12:20:45;;;;;;;1.30;1.03;;;27.30;36.40;;;;;;4989390;28;20462;-68
2022/09/14 12:23:26;;;;;;;1.30;1.10;;;27.10;37.20;;;;;;4986826;28;20436;-68
2022/09/14 12:26:23;;;;;;;1.30;1.03;;;27.40;35.00;;;;;;4984705;28;20440;-69
2022/09/14 12:28:55;;;;;;;1.30;1.00;;;26.20;38.30;;;;;;4988372;28;20479;-67
2022/09/14 12:31:31;;;;;;;1.30;1.10;;;25.40;41.30;;;;;;4996630;28;20445;-68
2022/09/14 12:34:18;;;;;;;1.30;1.20;;;25.80;39.70;;;;;;4989717;28;20428;-68
2022/09/14 12:36:44;;;;;;;1.30;1.13;;;25.50;41.40;;;;;;4984176;28;20432;-70
2022/09/14 12:39:19;;;;;;;1.30;1.10;;;25.50;41.90;;;;;;4989741;28;20971;-68
2022/09/14 12:41:45;;;;;;;1.30;1.10;;;25.20;43.20;;;;;;4987704;28;20295;-68
2022/09/14 12:44:35;;;;;;;1.30;1.10;;;24.90;44.50;;;;;;4984497;28;20865;-69
2022/09/14 12:47:28;;;;;;;1.30;1.20;;;24.90;45.00;;;;;;4986894;28;20213;-68
2022/09/14 12:50:09;;;;;;;1.30;1.20;;;25.00;45.10;;;;;;4995614;28;20896;-69
2022/09/14 12:52:52;;;;;;;1.30;1.20;;;25.10;45.80;;;;;;4981645;28;20437;-68
2022/09/14 12:55:20;;;;;;;1.30;1.30;;;24.80;46.70;;;;;;4997883;28;20510;-68
2022/09/14 12:58:14;;;;;;;1.30;1.03;;;25.00;47.20;;;;;;4986292;28;20443;-69
2022/09/14 13:00:55;;;;;;;1.30;1.20;;;25.30;46.60;;;;;;4985258;28;20444;-68
2022/09/14 13:03:47;;;;;;;1.30;1.20;;;25.50;45.10;;;;;;4994750;28;20778;-68
2022/09/14 13:06:13;;;;;;;1.30;1.20;;;25.20;46.20;;;;;;4994885;28;20775;-68
2022/09/14 13:08:44;;;;;;;1.30;1.10;;;24.80;49.10;;;;;;4992651;28;20551;-70
2022/09/14 13:11:16;;;;;;;1.30;1.20;;;24.60;50.80;;;;;;4989057;28;20942;-68